»·PEaware :: DAL2128 KSLC-KSFO

DAL2128 :: KSLC-KSFO

FLIGHT INFORMATION

Flight Status: Arrived
Operator:
Delta Air Lines
More flights by this operator :: More flights under this callsign
Pilot: Joe P. (13940)
Aircraft: BOEING 737-700
(B737)
More flights by this aircraft type
Origin: KSLC Salt Lake City Intl
United States
Destination: KSFO San Francisco Intl
United States
More flights between these airports :: More routes between these airports
Route: DEZRT1 BAM LLC LEGGS BDEGA3
File this flight plan on PilotEdge
Remarks: KSMF -PBN / A1B1C1D1L1O1S1 NAV / RNVD1E2A1 DOF / 181202 REG / N389DA EET / KZOA0044 RVR / 200 PER / C
Altitude:
(Current/Filed)
380ft
Speed:
(Current/Filed)
455kts
Departed: 02-Dec-18 07:41 AM
Arrived: 02-Dec-18 09:23 AM
Distance/Time
Traveled:
520nm/1:42
Distance/Time
To Go:
Arrived

Flight Plot

Page will automatically refresh every two minutes.

Flight plan parsing failed; only flown route is shown


Map Options




Map Legend


Flown Route
Filed Route
Departure Airport
Arrival Airport
Navaid (VOR, NDB)
Fix

Horizontal Profiles

Position Reports

Time Latitude Longitude Heading Altitude Ground
Speed
02-Dec-18 07:24 40.788533 -111.980747 280 4235ft 0kts
02-Dec-18 07:25 40.788533 -111.980747 280 4235ft 0kts
02-Dec-18 07:26 40.788533 -111.980747 280 4235ft 0kts
02-Dec-18 07:27 40.788533 -111.980747 280 4235ft 0kts
02-Dec-18 07:28 40.788533 -111.980747 280 4235ft 0kts
02-Dec-18 07:29 40.788533 -111.980747 280 4235ft 0kts
02-Dec-18 07:30 40.788433 -111.980067 280 4235ft 2kts
02-Dec-18 07:31 40.788362 -111.979584 280 4235ft 0kts
02-Dec-18 07:32 40.788362 -111.979584 280 4235ft 0kts
02-Dec-18 07:33 40.788362 -111.979584 280 4235ft 0kts
02-Dec-18 07:34 40.788362 -111.979584 280 4235ft 0kts
02-Dec-18 07:35 40.788362 -111.979584 280 4235ft 0kts
02-Dec-18 07:36 40.788362 -111.979584 280 4235ft 0kts
02-Dec-18 07:37 40.788363 -111.979585 280 4235ft 0kts
02-Dec-18 07:38 40.788373 -111.979649 283 4235ft 3kts
02-Dec-18 07:39 40.789574 -111.979340 75 4235ft 8kts
02-Dec-18 07:40 40.787641 -111.976853 177 4235ft 18kts
02-Dec-18 07:41 40.781673 -111.976071 175 4235ft 22kts
02-Dec-18 07:42 40.775620 -111.975071 172 4235ft 23kts
02-Dec-18 07:43 40.775011 -111.973097 7 4235ft 5kts
02-Dec-18 07:44 40.793625 -111.975199 355 4432ft 172kts
02-Dec-18 07:45 40.833221 -112.010687 280 6585ft 160kts
02-Dec-18 07:46 40.840092 -112.080944 277 7867ft 233kts
02-Dec-18 07:47 40.848916 -112.178099 277 9898ft 283kts
02-Dec-18 07:48 40.858799 -112.288939 277 11786ft 337kts
02-Dec-18 07:49 40.870094 -112.417545 275 14150ft 361kts
02-Dec-18 07:50 40.864293 -112.551971 264 16333ft 371kts
02-Dec-18 07:51 40.853440 -112.690814 263 18869ft 386kts
02-Dec-18 07:52 40.841850 -112.833874 264 21197ft 400kts
02-Dec-18 07:53 40.841440 -112.983660 269 23276ft 413kts
02-Dec-18 07:54 40.842061 -113.136480 268 25247ft 420kts
02-Dec-18 07:55 40.842164 -113.292075 269 27062ft 425kts
02-Dec-18 07:56 40.842744 -113.448893 270 28658ft 429kts
02-Dec-18 07:57 40.842634 -113.606408 270 30325ft 425kts
02-Dec-18 07:58 40.841993 -113.762521 271 31868ft 422kts
02-Dec-18 07:59 40.841140 -113.917428 271 33283ft 420kts
02-Dec-18 08:00 40.839941 -114.070599 272 34767ft 413kts
02-Dec-18 08:01 40.838557 -114.222897 272 35782ft 416kts
02-Dec-18 08:02 40.837625 -114.375890 272 36831ft 416kts
02-Dec-18 08:03 40.836220 -114.528357 272 37822ft 415kts
02-Dec-18 08:04 40.834244 -114.681770 272 37934ft 416kts
02-Dec-18 08:05 40.824718 -114.833998 264 37945ft 419kts
02-Dec-18 08:06 40.806713 -114.985595 265 37956ft 417kts
02-Dec-18 08:07 40.789648 -115.136899 265 37964ft 416kts
02-Dec-18 08:08 40.771961 -115.288036 265 37970ft 416kts
02-Dec-18 08:09 40.754230 -115.438170 265 37975ft 414kts
02-Dec-18 08:10 40.736211 -115.588334 265 37978ft 413kts
02-Dec-18 08:11 40.718046 -115.737467 265 37978ft 412kts
02-Dec-18 08:12 40.699893 -115.886678 265 37981ft 411kts
02-Dec-18 08:13 40.681984 -116.035078 265 37987ft 410kts
02-Dec-18 08:14 40.663764 -116.182722 265 37997ft 408kts
02-Dec-18 08:15 40.645238 -116.330641 266 38010ft 408kts
02-Dec-18 08:16 40.626631 -116.477515 265 38023ft 408kts
02-Dec-18 08:17 40.608028 -116.625162 265 38034ft 408kts
02-Dec-18 08:18 40.588906 -116.771880 265 38038ft 408kts
02-Dec-18 08:19 40.568862 -116.918616 261 38039ft 410kts
02-Dec-18 08:20 40.532706 -117.061762 257 38040ft 412kts
02-Dec-18 08:21 40.495159 -117.204205 258 38042ft 411kts
02-Dec-18 08:22 40.457716 -117.345511 258 38046ft 408kts
02-Dec-18 08:23 40.420930 -117.486100 258 38049ft 406kts
02-Dec-18 08:24 40.383804 -117.626189 258 38052ft 405kts
02-Dec-18 08:25 40.346751 -117.764870 258 38057ft 403kts
02-Dec-18 08:26 40.309441 -117.903648 258 38074ft 402kts
02-Dec-18 08:27 40.272154 -118.041542 258 38080ft 401kts
02-Dec-18 08:28 40.234660 -118.179491 259 38083ft 401kts
02-Dec-18 08:29 40.197395 -118.316855 258 38087ft 401kts
02-Dec-18 08:30 40.159418 -118.454472 258 38089ft 401kts
02-Dec-18 08:31 40.121276 -118.591631 257 38089ft 402kts
02-Dec-18 08:32 40.080299 -118.727371 257 38090ft 402kts
02-Dec-18 08:33 40.039086 -118.862983 257 38092ft 401kts
02-Dec-18 08:34 39.997885 -118.998038 257 38096ft 399kts
02-Dec-18 08:35 39.957837 -119.130891 258 38098ft 388kts
02-Dec-18 08:36 39.917922 -119.261875 258 38101ft 388kts
02-Dec-18 08:37 39.877875 -119.392353 258 38104ft 387kts
02-Dec-18 08:38 39.837671 -119.522600 258 38107ft 387kts
02-Dec-18 08:39 39.797531 -119.651988 258 38108ft 387kts
02-Dec-18 08:40 39.756897 -119.782318 258 38107ft 387kts
02-Dec-18 08:41 39.716285 -119.911969 258 38103ft 387kts
02-Dec-18 08:42 39.675494 -120.041578 258 38101ft 387kts
02-Dec-18 08:43 39.634712 -120.170546 258 38089ft 386kts
02-Dec-18 08:44 39.593803 -120.299323 258 38084ft 385kts
02-Dec-18 08:45 39.552833 -120.427685 258 38083ft 384kts
02-Dec-18 08:46 39.511983 -120.555101 258 38083ft 384kts
02-Dec-18 08:47 39.470902 -120.682667 257 38088ft 382kts
02-Dec-18 08:48 39.430170 -120.809466 257 38096ft 381kts
02-Dec-18 08:49 39.389056 -120.935674 257 38105ft 381kts
02-Dec-18 08:50 39.347306 -121.061894 254 38123ft 385kts
02-Dec-18 08:51 39.282422 -121.177492 242 38173ft 404kts
02-Dec-18 08:52 39.210219 -121.288895 242 38185ft 404kts
02-Dec-18 08:53 39.138119 -121.399058 242 38199ft 402kts
02-Dec-18 08:54 39.065867 -121.509622 242 38205ft 402kts
02-Dec-18 08:55 38.993698 -121.619527 242 38210ft 402kts
02-Dec-18 08:56 38.921299 -121.729187 242 38209ft 402kts
02-Dec-18 08:57 38.849399 -121.837646 242 36264ft 397kts
02-Dec-18 08:58 38.778005 -121.944966 243 33645ft 393kts
02-Dec-18 08:59 38.707641 -122.050449 242 31270ft 381kts
02-Dec-18 09:00 38.640156 -122.151530 242 29343ft 367kts
02-Dec-18 09:01 38.574208 -122.249785 241 27493ft 372kts
02-Dec-18 09:02 38.506016 -122.350766 241 25564ft 371kts
02-Dec-18 09:03 38.439708 -122.448891 241 23941ft 365kts
02-Dec-18 09:04 38.373200 -122.548067 240 22454ft 364kts
02-Dec-18 09:05 38.307661 -122.645014 240 21021ft 360kts
02-Dec-18 09:06 38.241503 -122.740099 230 19591ft 368kts
02-Dec-18 09:07 38.134018 -122.751941 165 17827ft 434kts
02-Dec-18 09:08 38.020035 -122.708129 172 15959ft 419kts
02-Dec-18 09:09 37.909612 -122.673555 161 14296ft 406kts
02-Dec-18 09:10 37.820564 -122.589633 137 12653ft 389kts
02-Dec-18 09:11 37.741764 -122.506177 139 11158ft 351kts
02-Dec-18 09:12 37.673694 -122.433810 138 11017ft 285kts
02-Dec-18 09:13 37.618607 -122.375042 133 10945ft 246kts
02-Dec-18 09:14 37.583653 -122.295238 129 9113ft 278kts
02-Dec-18 09:15 37.514417 -122.248110 154 7461ft 285kts
02-Dec-18 09:16 37.445492 -122.207049 154 6547ft 262kts
02-Dec-18 09:17 37.403121 -122.141993 114 5561ft 242kts
02-Dec-18 09:18 37.428481 -122.077085 22 4084ft 233kts
02-Dec-18 09:19 37.479658 -122.099031 336 3954ft 173kts
02-Dec-18 09:20 37.518887 -122.132155 303 3020ft 167kts
02-Dec-18 09:21 37.541354 -122.185310 299 2990ft 185kts
02-Dec-18 09:22 37.563422 -122.237843 298 2078ft 152kts
02-Dec-18 09:23 37.582856 -122.284106 296 1312ft 148kts
02-Dec-18 09:24 37.601831 -122.329284 296 522ft 143kts
02-Dec-18 09:25 37.619466 -122.371264 296 21ft 93kts
02-Dec-18 09:26 37.622236 -122.379253 273 21ft 0kts
02-Dec-18 09:27 37.622240 -122.379374 272 21ft 0kts
02-Dec-18 09:28 37.622308 -122.380688 273 21ft 6kts
02-Dec-18 09:29 37.621666 -122.384917 124 21ft 13kts
02-Dec-18 09:30 37.619588 -122.381946 117 21ft 9kts
02-Dec-18 09:31 37.616257 -122.379971 204 21ft 15kts
02-Dec-18 09:32 37.612369 -122.382604 199 21ft 17kts
02-Dec-18 09:33 37.612205 -122.384693 8 21ft 8kts
02-Dec-18 09:34 37.612639 -122.384667 4 21ft 0kts
02-Dec-18 09:35 37.612639 -122.384667 4 21ft 0kts
02-Dec-18 09:36 37.612639 -122.384667 4 21ft 0kts
02-Dec-18 09:37 37.612639 -122.384667 4 21ft 0kts
02-Dec-18 09:38 37.612639 -122.384667 4 21ft 0kts
02-Dec-18 09:39 37.612639 -122.384667 4 21ft 0kts

Navigation Log

Ident Type
Flight plan parsing failed, navigation log unavailable